createdAt,value
2019-02-23T00:03:24.028Z,14.73
2019-02-23T00:08:28.199Z,14.20
2019-02-23T00:13:33.141Z,13.77
2019-02-23T00:18:37.347Z,14.83
2019-02-23T00:23:42.404Z,16.67
2019-02-23T00:28:46.581Z,14.13
2019-02-23T00:33:51.149Z,15.60
2019-02-23T00:38:55.340Z,15.90
2019-02-23T00:44:00.263Z,12.73
2019-02-23T00:49:05.406Z,12.90
2019-02-23T00:54:10.057Z,12.17
2019-02-23T00:59:14.310Z,14.67
2019-02-23T01:04:18.519Z,14.83
2019-02-23T01:09:22.701Z,15.60
2019-02-23T01:14:27.517Z,14.73
2019-02-23T01:19:31.719Z,16.17
2019-02-23T01:24:36.878Z,16.77
2019-02-23T01:29:41.033Z,14.23
2019-02-23T01:34:46.805Z,14.80
2019-02-23T01:39:51.048Z,12.33
2019-02-23T01:44:55.880Z,13.80
2019-02-23T01:50:00.251Z,13.73
2019-02-23T01:55:04.806Z,15.30
2019-02-23T02:00:12.585Z,12.17
2019-02-23T02:05:17.486Z,14.60
2019-02-23T02:10:22.763Z,14.50
2019-02-23T02:15:27.629Z,14.70
2019-02-23T02:20:32.254Z,14.93
2019-02-23T02:25:37.228Z,12.63
2019-02-23T02:30:41.397Z,13.30
2019-02-23T02:35:46.607Z,14.13
2019-02-23T02:40:50.820Z,14.07
2019-02-23T02:45:55.809Z,12.03
2019-02-23T02:50:59.985Z,13.20
2019-02-23T02:56:04.987Z,12.07
2019-02-23T03:01:09.171Z,11.57
2019-02-23T03:06:13.653Z,12.83
2019-02-23T03:11:19.007Z,13.23
2019-02-23T03:16:23.537Z,14.67
2019-02-23T03:21:27.711Z,10.80
2019-02-23T03:26:32.852Z,9.27
2019-02-23T03:31:37.020Z,12.27
2019-02-23T03:36:41.501Z,11.87
2019-02-23T03:41:45.668Z,9.30
2019-02-23T03:46:52.586Z,14.97
2019-02-23T03:51:56.759Z,11.00
2019-02-23T03:57:01.510Z,13.13
2019-02-23T04:02:05.710Z,12.53
2019-02-23T04:07:10.191Z,10.77
2019-02-23T04:12:14.373Z,11.93
2019-02-23T04:17:18.653Z,10.33
2019-02-23T04:22:22.815Z,8.70
2019-02-23T04:27:27.926Z,11.17
2019-02-23T04:32:32.136Z,7.70
2019-02-23T04:37:37.113Z,9.33
2019-02-23T04:42:41.301Z,11.77
2019-02-23T04:47:45.499Z,11.87
2019-02-23T04:52:49.675Z,7.77
2019-02-23T04:57:54.586Z,11.40
2019-02-23T05:02:58.960Z,10.53
2019-02-23T05:08:03.459Z,11.27
2019-02-23T05:13:07.641Z,10.17
2019-02-23T05:18:12.003Z,13.53
2019-02-23T05:23:16.255Z,8.87
2019-02-23T05:28:20.453Z,12.97
2019-02-23T05:33:24.695Z,11.87
2019-02-23T05:38:29.472Z,6.73
2019-02-23T05:43:33.680Z,10.67
2019-02-23T05:48:38.928Z,11.87
2019-02-23T05:53:43.104Z,15.20
2019-02-23T05:58:48.250Z,13.53
2019-02-23T06:03:52.435Z,10.70
2019-02-23T06:08:56.827Z,12.23
2019-02-23T06:14:01.035Z,9.67
2019-02-23T06:19:06.134Z,11.60
2019-02-23T06:24:10.533Z,12.97
2019-02-23T06:29:15.598Z,10.47
2019-02-23T06:34:19.774Z,10.23
2019-02-23T06:39:24.338Z,11.87
2019-02-23T06:44:28.629Z,9.80
2019-02-23T06:49:32.937Z,15.40
2019-02-23T06:54:37.175Z,11.30
2019-02-23T06:59:41.835Z,11.00
2019-02-23T07:04:46.175Z,10.30
2019-02-23T07:09:50.595Z,12.40
2019-02-23T07:14:54.986Z,12.77
2019-02-23T07:19:59.589Z,13.90
2019-02-23T07:25:04.243Z,9.47
2019-02-23T07:30:09.391Z,15.50
2019-02-23T07:35:13.870Z,16.23
2019-02-23T07:40:18.483Z,11.77
2019-02-23T07:45:22.671Z,18.53
2019-02-23T07:50:27.463Z,10.67
2019-02-23T07:55:31.660Z,11.10
2019-02-23T08:00:36.357Z,14.30
2019-02-23T08:05:40.699Z,12.00
2019-02-23T08:10:45.493Z,12.27
2019-02-23T08:15:49.724Z,13.80
2019-02-23T08:20:54.678Z,13.43
2019-02-23T08:25:58.947Z,11.47
2019-02-23T08:31:03.494Z,10.50
2019-02-23T08:36:07.766Z,11.90
2019-02-23T08:41:13.498Z,12.00
2019-02-23T08:46:18.212Z,8.07
2019-02-23T08:51:22.750Z,10.73
2019-02-23T08:56:27.320Z,10.83
2019-02-23T09:01:32.543Z,8.33
2019-02-23T09:06:36.814Z,10.13
2019-02-23T09:11:43.862Z,12.78
2019-02-23T09:16:48.495Z,6.83
2019-02-23T09:21:54.405Z,5.33
2019-02-23T09:26:58.980Z,8.77
2019-02-23T09:32:04.774Z,9.23
2019-02-23T09:37:09.051Z,6.08
2019-02-23T09:42:16.486Z,10.70
2019-02-23T09:47:22.022Z,8.33
2019-02-23T09:52:27.990Z,10.20
2019-02-23T09:57:32.475Z,6.50
2019-02-23T10:02:36.788Z,8.88
2019-02-23T10:07:41.436Z,11.37
2019-02-23T10:12:46.044Z,9.03
2019-02-23T10:17:50.635Z,7.83
2019-02-23T10:22:55.134Z,8.60
2019-02-23T10:27:59.632Z,9.30
2019-02-23T10:33:05.836Z,8.13
2019-02-23T10:38:11.120Z,10.23
2019-02-23T10:43:17.102Z,6.20
2019-02-23T10:48:21.852Z,6.73
2019-02-23T10:53:32.734Z,3.70
2019-02-23T10:58:34.354Z,6.53
2019-02-23T11:03:40.874Z,6.87
2019-02-23T11:08:45.404Z,4.87
2019-02-23T11:13:49.951Z,4.43
2019-02-23T11:18:55.096Z,4.87
2019-02-23T11:24:01.103Z,3.67
2019-02-23T11:29:05.776Z,4.13
2019-02-23T11:34:11.492Z,4.27
2019-02-23T11:39:16.203Z,6.83
2019-02-23T11:44:20.685Z,2.93
2019-02-23T11:49:25.244Z,4.97
2019-02-23T11:54:29.923Z,5.30
2019-02-23T11:59:34.409Z,5.43
2019-02-23T12:04:38.886Z,4.57
2019-02-23T12:09:43.412Z,4.97
2019-02-23T12:14:47.900Z,4.17
2019-02-23T12:19:52.527Z,2.27
2019-02-23T12:24:57.049Z,4.73
2019-02-23T12:30:03.279Z,3.27
2019-02-23T12:35:08.159Z,4.17
2019-02-23T12:40:12.610Z,4.30
2019-02-23T12:45:17.220Z,3.53
2019-02-23T12:50:21.666Z,4.20
2019-02-23T12:55:27.858Z,5.57
2019-02-23T13:00:33.648Z,4.43
2019-02-23T13:05:38.185Z,4.20
2019-02-23T13:10:42.703Z,3.97
2019-02-23T13:15:52.791Z,5.40
2019-02-23T13:21:15.194Z,3.90
2019-02-23T13:26:41.794Z,4.17
2019-02-23T13:32:01.892Z,4.67
2019-02-23T13:37:09.817Z,4.70
2019-02-23T13:42:20.806Z,4.33
2019-02-23T13:47:44.646Z,3.57
2019-02-23T13:53:14.497Z,3.80
2019-02-23T13:58:25.651Z,2.37
2019-02-23T14:03:48.862Z,2.37
2019-02-23T14:09:11.586Z,3.37
2019-02-23T14:14:48.363Z,2.90
2019-02-23T14:20:12.507Z,2.93
2019-02-23T14:25:33.000Z,2.50
2019-02-23T14:30:59.974Z,3.47
2019-02-23T14:36:09.151Z,2.23
2019-02-23T14:41:26.515Z,2.23
2019-02-23T14:46:47.113Z,1.10
2019-02-23T14:52:23.176Z,4.00
2019-02-23T14:58:02.109Z,3.17
2019-02-23T15:03:33.074Z,2.90
2019-02-23T15:09:17.279Z,1.87
2019-02-23T15:14:40.218Z,3.87
2019-02-23T15:20:02.499Z,2.57
2019-02-23T15:25:23.138Z,1.00
2019-02-23T15:30:45.715Z,3.23
2019-02-23T15:35:57.546Z,3.20
2019-02-23T15:41:19.880Z,4.00
2019-02-23T15:46:37.498Z,2.42
2019-02-23T15:51:41.822Z,2.65
2019-02-23T15:56:46.346Z,2.20
2019-02-23T16:01:50.533Z,2.98
2019-02-23T16:06:55.519Z,2.95
2019-02-23T16:11:59.737Z,3.70
2019-02-23T16:17:03.934Z,2.85
2019-02-23T16:22:08.137Z,2.52
2019-02-23T16:27:12.987Z,3.15
2019-02-23T16:32:17.191Z,2.27
2019-02-23T16:37:21.535Z,3.40
2019-02-23T16:42:25.814Z,2.17
2019-02-23T16:47:30.595Z,4.72
2019-02-23T16:52:35.111Z,3.43
2019-02-23T16:57:39.998Z,3.02
2019-02-23T17:02:46.408Z,2.97
2019-02-23T17:07:50.803Z,2.25
2019-02-23T17:12:55.012Z,1.87
2019-02-23T17:17:59.202Z,2.05
2019-02-23T17:23:03.843Z,2.77
2019-02-23T17:28:09.686Z,2.57
2019-02-23T17:33:16.368Z,1.90
2019-02-23T17:38:20.570Z,3.03
2019-02-23T17:43:24.805Z,2.35
2019-02-23T17:53:33.924Z,2.57
2019-02-23T17:58:38.439Z,2.87
2019-02-23T18:03:42.918Z,2.77
2019-02-23T18:08:47.917Z,4.93
2019-02-23T18:13:54.510Z,3.53
2019-02-23T18:18:59.785Z,3.87
2019-02-23T18:24:04.184Z,2.90
2019-02-23T18:29:08.802Z,3.93
2019-02-23T18:34:12.997Z,3.67
2019-02-23T18:39:17.211Z,2.10
2019-02-23T18:44:21.397Z,2.17
2019-02-23T18:49:25.886Z,2.20
2019-02-23T18:54:30.077Z,2.27
2019-02-23T18:59:35.598Z,3.57
2019-02-23T19:04:42.200Z,2.47
2019-02-23T19:09:46.521Z,4.77
2019-02-23T19:14:50.719Z,3.03
2019-02-23T19:19:55.348Z,3.03
2019-02-23T19:24:59.552Z,3.60
2019-02-23T19:30:04.177Z,2.33
2019-02-23T19:35:10.336Z,4.70
2019-02-23T19:40:14.624Z,4.80
2019-02-23T19:45:19.061Z,4.17
2019-02-23T19:50:25.044Z,2.33
2019-02-23T19:55:29.304Z,3.33
2019-02-23T20:00:33.730Z,5.07
2019-02-23T20:05:38.499Z,2.47
2019-02-23T20:10:43.030Z,4.00
2019-02-23T20:15:47.356Z,2.07
2019-02-23T20:20:52.766Z,5.40
2019-02-23T20:25:57.067Z,4.60
2019-02-23T20:31:01.287Z,2.60
2019-02-23T20:36:06.508Z,3.53
2019-02-23T20:41:11.727Z,3.67
2019-02-23T20:46:17.036Z,2.87
2019-02-23T20:51:21.742Z,4.43
2019-02-23T20:56:26.199Z,2.97
2019-02-23T21:01:30.689Z,2.70
2019-02-23T21:06:35.736Z,2.83
2019-02-23T21:11:41.753Z,5.97
2019-02-23T21:16:46.301Z,4.47
2019-02-23T21:21:50.507Z,4.23
2019-02-23T21:26:55.791Z,3.60
2019-02-23T21:32:00.006Z,4.57
2019-02-23T21:37:04.680Z,3.93
2019-02-23T21:42:08.872Z,2.90
2019-02-23T21:47:13.297Z,4.93
2019-02-23T21:52:18.033Z,3.47
2019-02-23T21:57:23.052Z,3.50
2019-02-23T22:02:28.499Z,3.53
2019-02-23T22:07:32.735Z,4.73
2019-02-23T22:12:38.073Z,4.83
2019-02-23T22:17:42.332Z,4.20
2019-02-23T22:22:46.661Z,3.07
2019-02-23T22:27:50.932Z,4.23
2019-02-23T22:32:56.764Z,5.50
2019-02-23T22:38:00.955Z,4.07
2019-02-23T22:43:06.654Z,2.73
2019-02-23T22:48:10.874Z,4.27
2019-02-23T22:53:16.267Z,7.03
2019-02-23T22:58:20.560Z,5.03
2019-02-23T23:03:26.026Z,5.00
2019-02-23T23:08:30.306Z,4.50
2019-02-23T23:13:35.552Z,5.20
2019-02-23T23:18:39.711Z,6.10
2019-02-23T23:23:44.863Z,5.03
2019-02-23T23:28:49.040Z,5.43
2019-02-23T23:33:54.850Z,3.03
2019-02-23T23:38:59.043Z,5.60
2019-02-23T23:44:04.697Z,5.23
2019-02-23T23:49:08.914Z,5.17
2019-02-23T23:54:14.517Z,7.03
2019-02-23T23:59:18.708Z,6.30
